14:52
Airports
History
Links
Donate
Help keep this website running!
PayPal
Bitcoin
This page is community maintained. The information is intended for PC simulator navigation or reference.
Always use approved charts for navigation.
68B
Beech Hill
Beech Hill (68B)
Mercer, Maine, United States (4957)
4
Lat/Lng:44° 40' 0.22" N / 69° 53' 38.2" W
44.666729 / -69.893944
Elevation:625'ft / 191mMSL
ID / ICAO:68B
Runways:1
Longest:(15-33) 595.5m / 1,954ft Grass
Distance To
Airport ID:
Nearby VORs <50NM
Nearby NDBs
Nearby WeatherUpdated 08-19-17 14:42 GMT
Nearby weather at KWVL, Waterville Robert Lafleur located 14.2 nautical miles from 68B
Altimeter: 29.79
Visibility: 10.0 statute miles
Wind: 4 knots (350°)
Temp: 17°c 63°f
Humidity: 93.8%

METAR: KWVL 191442Z AUTO 35004KT 10SM OVC006 17/16 A2979 RMK AO2

(Powered by phpweather)
Runway 15 / 33
Dimensions:595.5 x 36.6m 1954' x 120'ft
Surface:Grass
Runway 15 [A]Runway 33 [B]
Heading:132°TH 312°TH
Lat:
Lng:
44° 40' 6.67"N
69° 53' 48.26"W
44° 39' 53.78"N
69° 53' 28.14"W
User Notes and Comments
Google Map
Nearby Airports
(U) Central Maine Arpt Of Norridge 3.6 NM
KOWK NNE 21°
4 Hapworths Private Lndg Area 11.1 NM
79B E 99°
4 Mount Vernon 11.3 NM
74B SSW 194°
(R) Bob-mar 14.1 NM
ME20 ESE 109°
(U) Waterville Robert Lafleur 14.2 NM
KWVL (WX) SE 130°
(R) Sunny Hill 14.2 NM
ME60 SSE 164°
(R) Hilltop 19.2 NM
ME92 WSW 237°
VFR Chart
Flight Planning at SkyVector.com